Time;durP1;ratioP1;P1;durP2;ratioP2;P2;SDS_P1;SDS_P2;PMS_P1;PMS_P2;Temp;Humidity;BMP_temperature;BMP_pressure;BME280_temperature;BME280_humidity;BME280_pressure;Samples;Min_cycle;Max_cycle;Signal;HPM_P1;HPM_P2
2021/11/24 00:02:25;;;;;;;19.83;9.18;;;6.70;99.90;;;;;;5009890;28;20030;-49
2021/11/24 00:04:50;;;;;;;16.27;8.70;;;6.70;99.90;;;;;;5005987;28;20045;-49
2021/11/24 00:07:16;;;;;;;10.57;8.88;;;6.70;99.90;;;;;;5006866;28;20061;-50
2021/11/24 00:09:41;;;;;;;14.40;9.35;;;6.70;99.90;;;;;;5005773;28;20037;-48
2021/11/24 00:12:08;;;;;;;13.05;9.38;;;6.70;99.90;;;;;;5006028;28;20453;-48
2021/11/24 00:14:33;;;;;;;25.30;8.70;;;6.80;99.90;;;;;;5015534;28;20049;-50
2021/11/24 00:16:59;;;;;;;12.23;7.53;;;6.80;99.90;;;;;;5009817;28;20061;-48
2021/11/24 00:19:25;;;;;;;23.00;7.50;;;6.70;99.90;;;;;;4974174;28;20125;-50
2021/11/24 00:21:50;;;;;;;11.90;6.70;;;6.70;99.90;;;;;;4970890;28;20042;-50
2021/11/24 00:24:16;;;;;;;10.25;6.82;;;6.70;99.90;;;;;;4973082;28;20030;-51
2021/11/24 00:26:42;;;;;;;10.18;7.70;;;6.70;99.90;;;;;;5013777;28;20460;-52
2021/11/24 00:29:07;;;;;;;9.60;7.50;;;6.60;99.90;;;;;;5010192;28;20426;-49
2021/11/24 00:31:33;;;;;;;9.73;6.90;;;6.70;99.90;;;;;;5011352;28;20605;-48
2021/11/24 00:34:00;;;;;;;11.50;6.80;;;6.70;99.90;;;;;;5000113;28;20034;-51
2021/11/24 00:36:26;;;;;;;9.10;6.85;;;6.70;99.90;;;;;;4996049;28;20042;-51
2021/11/24 00:38:51;;;;;;;8.88;7.15;;;6.70;99.90;;;;;;5002392;28;20041;-49
2021/11/24 00:41:17;;;;;;;8.93;7.45;;;6.70;99.90;;;;;;5011083;28;20114;-51
2021/11/24 00:43:43;;;;;;;8.50;7.13;;;6.70;99.90;;;;;;5011027;28;20044;-51
2021/11/24 00:46:08;;;;;;;10.55;7.45;;;6.70;99.90;;;;;;5006271;28;20034;-51
2021/11/24 00:48:34;;;;;;;10.13;7.60;;;6.70;99.90;;;;;;4996458;28;20046;-52
2021/11/24 00:51:00;;;;;;;9.93;7.85;;;6.70;99.90;;;;;;5010195;28;20073;-50
2021/11/24 00:53:25;;;;;;;12.73;8.13;;;6.70;99.90;;;;;;4970592;28;20515;-51
2021/11/24 00:55:51;;;;;;;9.48;7.80;;;6.70;99.90;;;;;;4999368;28;20042;-49
2021/11/24 00:58:17;;;;;;;12.95;8.40;;;6.70;99.90;;;;;;5010961;28;20390;-50
2021/11/24 01:00:44;;;;;;;10.45;8.18;;;6.80;99.90;;;;;;5013518;28;20513;-49
2021/11/24 01:03:10;;;;;;;11.48;9.02;;;6.80;99.90;;;;;;5006461;28;20057;-48
2021/11/24 01:05:35;;;;;;;12.73;8.52;;;6.80;99.90;;;;;;5004008;28;20041;-50
2021/11/24 01:08:01;;;;;;;11.43;8.80;;;6.80;99.90;;;;;;5004046;28;20068;-47
2021/11/24 01:10:26;;;;;;;13.05;9.27;;;6.90;99.90;;;;;;5003656;28;20434;-49
2021/11/24 01:12:52;;;;;;;9.70;7.90;;;6.90;99.90;;;;;;5006128;28;20034;-48
2021/11/24 01:15:18;;;;;;;19.73;8.00;;;7.00;99.90;;;;;;5005875;28;20037;-52
2021/11/24 01:17:44;;;;;;;10.52;8.25;;;7.00;99.90;;;;;;5009110;28;20041;-53
2021/11/24 01:20:11;;;;;;;9.60;7.82;;;7.00;99.90;;;;;;4998630;28;20030;-53
2021/11/24 01:22:36;;;;;;;11.68;8.00;;;7.00;99.90;;;;;;4992021;28;20038;-53
2021/11/24 01:25:02;;;;;;;10.10;8.27;;;7.00;99.90;;;;;;5003860;28;20042;-52
2021/11/24 01:27:29;;;;;;;9.63;7.93;;;7.00;99.90;;;;;;4961901;28;20034;-53
2021/11/24 01:29:54;;;;;;;11.02;7.90;;;7.00;99.90;;;;;;4990077;28;20049;-53
2021/11/24 01:32:20;;;;;;;9.35;7.93;;;7.00;99.90;;;;;;4998304;28;20038;-52
2021/11/24 01:34:46;;;;;;;11.35;8.63;;;7.00;99.90;;;;;;4996653;28;20046;-53
2021/11/24 01:37:11;;;;;;;11.05;8.38;;;7.10;99.90;;;;;;5001080;28;20041;-53
2021/11/24 01:39:38;;;;;;;13.23;8.80;;;7.00;99.90;;;;;;4999460;28;20545;-50
2021/11/24 01:42:04;;;;;;;11.35;8.13;;;7.00;99.90;;;;;;4996595;28;20446;-52
2021/11/24 01:44:30;;;;;;;10.48;8.27;;;7.10;99.90;;;;;;4996643;28;20117;-52
2021/11/24 01:46:58;;;;;;;11.43;8.07;;;7.10;99.90;;;;;;4997704;28;20376;-53
2021/11/24 01:49:25;;;;;;;10.85;7.78;;;7.10;99.90;;;;;;5004778;28;20103;-53
2021/11/24 01:51:51;;;;;;;14.52;9.10;;;7.10;99.90;;;;;;5000902;28;20533;-51
2021/11/24 01:54:18;;;;;;;12.73;9.05;;;7.10;99.90;;;;;;5004151;28;20184;-52
2021/11/24 01:56:44;;;;;;;12.32;9.20;;;7.10;99.90;;;;;;5001073;28;20073;-52
2021/11/24 01:59:11;;;;;;;11.43;8.88;;;7.10;99.90;;;;;;5002655;28;20041;-52
2021/11/24 02:01:44;;;;;;;11.38;8.68;;;7.10;99.90;;;;;;4999548;28;20405;-52
2021/11/24 02:04:14;;;;;;;12.63;8.75;;;7.10;99.90;;;;;;5008054;28;20058;-51
2021/11/24 02:06:40;;;;;;;16.23;9.10;;;7.10;99.90;;;;;;5006693;28;20123;-52
2021/11/24 02:09:06;;;;;;;14.63;9.05;;;7.20;99.90;;;;;;5004857;28;20526;-51
2021/11/24 02:11:37;;;;;;;11.93;8.65;;;7.20;99.90;;;;;;5010571;28;20518;-50
2021/11/24 02:14:07;;;;;;;14.30;8.82;;;7.20;99.90;;;;;;5007994;28;20069;-49
2021/11/24 02:16:40;;;;;;;13.23;8.68;;;7.20;99.90;;;;;;5005520;28;20042;-49
2021/11/24 02:19:05;;;;;;;11.98;8.45;;;7.20;99.90;;;;;;5008413;28;20045;-50
2021/11/24 02:21:31;;;;;;;12.65;9.02;;;7.20;99.90;;;;;;5012747;28;20482;-52
2021/11/24 02:23:56;;;;;;;12.02;8.98;;;7.20;99.90;;;;;;5010531;28;20092;-51
2021/11/24 02:26:22;;;;;;;12.48;9.48;;;7.20;99.90;;;;;;5003512;28;20033;-51
2021/11/24 02:28:48;;;;;;;12.02;8.07;;;7.20;99.90;;;;;;5011181;28;20061;-52
2021/11/24 02:31:21;;;;;;;13.00;8.27;;;7.20;99.90;;;;;;5009025;28;20034;-49
2021/11/24 02:33:51;;;;;;;11.95;9.10;;;7.10;99.90;;;;;;5009087;28;20073;-52
2021/11/24 02:36:17;;;;;;;11.52;8.48;;;7.20;99.90;;;;;;5014263;28;20056;-49
2021/11/24 02:38:44;;;;;;;12.63;8.85;;;7.20;99.90;;;;;;5010181;28;20042;-50
2021/11/24 02:41:10;;;;;;;12.77;8.68;;;7.20;99.90;;;;;;5002115;28;20035;-50
2021/11/24 02:43:36;;;;;;;14.32;8.45;;;7.20;99.90;;;;;;5013152;28;20048;-50
2021/11/24 02:46:01;;;;;;;12.25;7.95;;;7.20;99.90;;;;;;5012274;28;20033;-50
2021/11/24 02:48:27;;;;;;;15.25;7.97;;;7.20;99.90;;;;;;5007015;28;20088;-49
2021/11/24 02:50:54;;;;;;;12.20;7.15;;;7.20;99.90;;;;;;5007455;28;20133;-49
2021/11/24 02:53:28;;;;;;;12.35;8.10;;;7.20;99.90;;;;;;5014056;28;20034;-52
2021/11/24 02:55:55;;;;;;;11.82;7.22;;;7.30;99.90;;;;;;5016569;28;20046;-48
2021/11/24 02:58:21;;;;;;;11.98;7.55;;;7.20;99.90;;;;;;5011377;28;20372;-51
2021/11/24 03:00:47;;;;;;;9.95;7.50;;;7.20;99.90;;;;;;5022707;28;20053;-49
2021/11/24 03:03:13;;;;;;;14.52;6.35;;;7.30;99.90;;;;;;5011010;28;20042;-49
2021/11/24 03:05:38;;;;;;;8.98;6.55;;;7.30;99.90;;;;;;5013218;28;20128;-49
2021/11/24 03:08:04;;;;;;;8.70;6.00;;;7.30;99.90;;;;;;5013299;28;20037;-49
2021/11/24 03:10:31;;;;;;;13.45;6.50;;;7.30;99.90;;;;;;5007521;28;20033;-51
2021/11/24 03:12:58;;;;;;;8.25;6.15;;;7.30;99.90;;;;;;5005304;28;20030;-49
2021/11/24 03:15:24;;;;;;;10.45;5.97;;;7.30;99.90;;;;;;5013712;28;20042;-48
2021/11/24 03:17:50;;;;;;;10.93;6.78;;;7.30;99.90;;;;;;5003654;28;20043;-51
2021/11/24 03:20:16;;;;;;;11.10;5.82;;;7.30;99.90;;;;;;4995220;28;20030;-51
2021/11/24 03:22:42;;;;;;;9.07;5.10;;;7.30;99.90;;;;;;5004205;28;20073;-50
2021/11/24 03:25:09;;;;;;;10.10;5.03;;;7.30;99.90;;;;;;5001120;28;20502;-53
2021/11/24 03:27:38;;;;;;;8.77;4.75;;;7.30;99.90;;;;;;5001945;28;20033;-50
2021/11/24 03:30:08;;;;;;;10.45;4.53;;;7.30;99.90;;;;;;5003249;28;20402;-52
2021/11/24 03:32:34;;;;;;;12.73;5.05;;;7.30;99.90;;;;;;4998200;28;20046;-50
2021/11/24 03:35:00;;;;;;;8.43;4.72;;;7.30;99.90;;;;;;5006752;28;20033;-52
2021/11/24 03:37:25;;;;;;;7.72;4.65;;;7.30;99.90;;;;;;5009705;28;20034;-49
2021/11/24 03:39:51;;;;;;;11.25;5.40;;;7.30;99.90;;;;;;5007179;28;20041;-51
2021/11/24 03:42:18;;;;;;;9.18;4.95;;;7.30;99.90;;;;;;5000321;28;20030;-51
2021/11/24 03:44:44;;;;;;;6.97;4.60;;;7.40;99.90;;;;;;5014489;28;20033;-48
2021/11/24 03:47:10;;;;;;;7.25;4.30;;;7.30;99.90;;;;;;5004893;28;20095;-50
2021/11/24 03:49:35;;;;;;;8.65;4.90;;;7.30;99.90;;;;;;4996867;28;20089;-50
2021/11/24 03:52:01;;;;;;;7.88;4.07;;;7.30;99.90;;;;;;5012766;28;20042;-52
2021/11/24 03:54:27;;;;;;;7.35;4.47;;;7.30;99.90;;;;;;5012028;28;20034;-50
2021/11/24 03:56:52;;;;;;;7.10;4.47;;;7.30;99.90;;;;;;5008171;28;20410;-49
2021/11/24 03:59:18;;;;;;;10.90;5.05;;;7.30;99.90;;;;;;5008624;28;20044;-49
2021/11/24 04:01:44;;;;;;;9.20;4.18;;;7.30;99.90;;;;;;5012220;28;20044;-52
2021/11/24 04:04:09;;;;;;;7.68;4.90;;;7.30;99.90;;;;;;5004711;28;20030;-52
2021/11/24 04:06:35;;;;;;;8.10;4.28;;;7.30;99.90;;;;;;5008547;28;20120;-48
2021/11/24 04:09:01;;;;;;;7.95;4.30;;;7.30;99.90;;;;;;5003292;28;20413;-51
2021/11/24 04:11:27;;;;;;;9.05;3.67;;;7.20;99.90;;;;;;5011355;28;20030;-49
2021/11/24 04:13:52;;;;;;;6.50;3.45;;;7.30;99.90;;;;;;5008209;28;20065;-50
2021/11/24 04:16:18;;;;;;;6.07;3.78;;;7.20;99.90;;;;;;5011835;28;20080;-48
2021/11/24 04:18:44;;;;;;;8.35;4.05;;;7.20;99.90;;;;;;5004239;28;20034;-49
2021/11/24 04:21:10;;;;;;;7.10;3.70;;;7.30;99.90;;;;;;5012459;28;20040;-49
2021/11/24 04:23:35;;;;;;;8.25;3.40;;;7.20;99.90;;;;;;5007395;28;20044;-50
2021/11/24 04:26:01;;;;;;;6.47;2.97;;;7.20;99.90;;;;;;5008151;28;20186;-50
2021/11/24 04:28:26;;;;;;;6.00;3.30;;;7.20;99.90;;;;;;5004278;28;20060;-49
2021/11/24 04:30:52;;;;;;;6.18;3.30;;;7.30;99.90;;;;;;5011803;28;20029;-49
2021/11/24 04:33:18;;;;;;;6.70;2.90;;;7.30;99.90;;;;;;5011651;28;20116;-50
2021/11/24 04:35:43;;;;;;;5.78;3.40;;;7.30;99.90;;;;;;5007177;28;20038;-51
2021/11/24 04:38:09;;;;;;;5.82;3.00;;;7.30;99.90;;;;;;5001564;28;20514;-51
2021/11/24 04:40:35;;;;;;;5.32;3.50;;;7.30;99.90;;;;;;5009010;28;20077;-50
2021/11/24 04:43:03;;;;;;;7.60;3.25;;;7.30;99.90;;;;;;4999712;28;20046;-51
2021/11/24 04:45:29;;;;;;;6.88;3.75;;;7.30;99.90;;;;;;5004751;28;20073;-52
2021/11/24 04:47:54;;;;;;;6.60;3.40;;;7.30;99.90;;;;;;5009630;28;20097;-50
2021/11/24 04:50:20;;;;;;;6.60;3.20;;;7.30;99.90;;;;;;5011874;28;20084;-49
2021/11/24 04:52:47;;;;;;;7.68;3.30;;;7.30;99.90;;;;;;5008620;28;20517;-50
2021/11/24 04:55:14;;;;;;;6.57;3.45;;;7.30;99.90;;;;;;5010570;28;20425;-50
2021/11/24 04:57:40;;;;;;;5.75;3.63;;;7.20;99.90;;;;;;5009762;28;20046;-51
2021/11/24 05:00:12;;;;;;;5.40;3.50;;;7.20;99.90;;;;;;5002120;28;20169;-51
2021/11/24 05:02:37;;;;;;;6.95;3.13;;;7.20;99.90;;;;;;5003155;28;20403;-48
2021/11/24 05:05:04;;;;;;;5.00;3.28;;;7.20;99.90;;;;;;5011576;28;20034;-51
2021/11/24 05:07:29;;;;;;;8.68;3.67;;;7.20;99.90;;;;;;5007375;28;20070;-50
2021/11/24 05:09:55;;;;;;;5.68;2.60;;;7.20;99.90;;;;;;5006431;28;20509;-49
2021/11/24 05:12:21;;;;;;;9.48;2.95;;;7.20;99.90;;;;;;5007725;28;20037;-49
2021/11/24 05:14:49;;;;;;;6.57;3.03;;;7.20;99.90;;;;;;4990891;28;20042;-48
2021/11/24 05:17:16;;;;;;;7.50;3.97;;;7.20;99.90;;;;;;5009097;28;20117;-50
2021/11/24 05:19:47;;;;;;;5.07;2.90;;;7.20;99.90;;;;;;5010927;28;20038;-49
2021/11/24 05:22:13;;;;;;;7.05;3.35;;;7.20;99.90;;;;;;5011568;28;20042;-49
2021/11/24 05:24:38;;;;;;;5.07;2.90;;;7.10;99.90;;;;;;5004332;28;20064;-49
2021/11/24 05:27:04;;;;;;;5.93;2.65;;;7.20;99.90;;;;;;5002431;28;20061;-49
2021/11/24 05:29:30;;;;;;;4.82;2.80;;;7.20;99.90;;;;;;5001059;28;20085;-50
2021/11/24 05:31:56;;;;;;;5.43;2.80;;;7.20;99.90;;;;;;5006114;28;20038;-52
2021/11/24 05:34:21;;;;;;;5.78;2.90;;;7.20;99.90;;;;;;5007303;28;20045;-51
2021/11/24 05:36:47;;;;;;;5.43;2.47;;;7.20;99.90;;;;;;5011534;28;20038;-50
2021/11/24 05:39:13;;;;;;;5.05;2.80;;;7.20;99.90;;;;;;5008124;28;20092;-50
2021/11/24 05:41:41;;;;;;;6.50;2.80;;;7.20;99.90;;;;;;5006956;28;20427;-49
2021/11/24 05:44:17;;;;;;;6.90;3.10;;;7.20;99.90;;;;;;5005537;28;20109;-52
2021/11/24 05:46:47;;;;;;;4.50;2.90;;;7.20;99.90;;;;;;5017388;28;20125;-51
2021/11/24 05:49:14;;;;;;;10.68;3.50;;;7.10;99.90;;;;;;5012419;28;20037;-51
2021/11/24 05:51:39;;;;;;;4.20;3.00;;;7.10;99.90;;;;;;5013425;28;20049;-51
2021/11/24 05:54:05;;;;;;;6.22;3.03;;;7.10;99.90;;;;;;5016016;28;20046;-49
2021/11/24 05:56:33;;;;;;;5.93;2.47;;;7.10;99.90;;;;;;5018406;28;20076;-49
2021/11/24 05:58:59;;;;;;;4.57;2.45;;;7.10;99.90;;;;;;4999000;28;20046;-50
2021/11/24 06:01:25;;;;;;;6.93;2.42;;;7.10;99.90;;;;;;5010273;28;20144;-52
2021/11/24 06:03:50;;;;;;;5.57;2.55;;;7.10;99.90;;;;;;5009616;28;20427;-50
2021/11/24 06:06:16;;;;;;;3.75;2.58;;;7.10;99.90;;;;;;5019601;28;20095;-49
2021/11/24 06:08:41;;;;;;;5.13;2.90;;;7.20;99.90;;;;;;5010002;28;20407;-52
2021/11/24 06:11:07;;;;;;;7.93;3.08;;;7.20;99.90;;;;;;5005377;28;20042;-50
2021/11/24 06:13:32;;;;;;;5.20;3.03;;;7.10;99.90;;;;;;5014070;28;20411;-49
2021/11/24 06:15:58;;;;;;;5.60;2.70;;;7.10;99.90;;;;;;5014927;28;20073;-51
2021/11/24 06:18:23;;;;;;;5.88;2.65;;;7.10;99.90;;;;;;5014241;28;20498;-51
2021/11/24 06:20:49;;;;;;;4.50;2.70;;;7.10;99.90;;;;;;5015714;28;20512;-52
2021/11/24 06:23:15;;;;;;;4.95;2.95;;;7.20;99.90;;;;;;5015677;28;20486;-52
2021/11/24 06:25:40;;;;;;;4.72;3.15;;;7.10;99.90;;;;;;5015486;28;20072;-51
2021/11/24 06:28:07;;;;;;;5.00;3.10;;;7.10;99.90;;;;;;5016103;28;20026;-53
2021/11/24 06:30:32;;;;;;;5.15;2.80;;;7.10;99.90;;;;;;5014364;28;20045;-52
2021/11/24 06:32:58;;;;;;;4.28;2.95;;;7.10;99.90;;;;;;5012833;28;20038;-53
2021/11/24 06:35:24;;;;;;;4.65;2.95;;;7.10;99.90;;;;;;5016703;28;21244;-53
2021/11/24 06:37:50;;;;;;;3.70;2.80;;;7.10;99.90;;;;;;5014683;28;20033;-52
2021/11/24 06:40:16;;;;;;;4.72;3.00;;;7.10;99.90;;;;;;4978213;28;20038;-52
2021/11/24 06:42:42;;;;;;;7.90;3.08;;;7.10;99.90;;;;;;5013073;28;20613;-53
2021/11/24 06:45:08;;;;;;;5.53;3.13;;;7.10;99.90;;;;;;5016298;28;20045;-54
2021/11/24 06:47:35;;;;;;;4.18;3.10;;;7.10;99.90;;;;;;5019750;28;20416;-52
2021/11/24 06:50:00;;;;;;;7.80;3.17;;;7.10;99.90;;;;;;5015719;28;20042;-53
2021/11/24 06:52:26;;;;;;;6.55;3.10;;;7.10;99.90;;;;;;5015598;28;20487;-52
2021/11/24 06:54:52;;;;;;;5.60;3.40;;;7.10;99.90;;;;;;5019098;28;20042;-51
2021/11/24 06:57:17;;;;;;;6.53;3.83;;;7.10;99.90;;;;;;5013846;28;20034;-53
2021/11/24 06:59:43;;;;;;;5.80;3.72;;;7.10;99.90;;;;;;5003903;28;20096;-53
2021/11/24 07:02:09;;;;;;;7.80;3.58;;;7.10;99.90;;;;;;5004171;28;20045;-54
2021/11/24 07:04:34;;;;;;;7.05;3.80;;;7.10;99.90;;;;;;5002746;28;20042;-53
2021/11/24 07:07:00;;;;;;;6.63;3.70;;;7.10;99.90;;;;;;5014422;28;20605;-53
2021/11/24 07:09:27;;;;;;;6.65;3.90;;;7.10;99.90;;;;;;4995100;28;20041;-51
2021/11/24 07:11:52;;;;;;;5.68;3.78;;;7.10;99.90;;;;;;5017246;28;20509;-53
2021/11/24 07:14:18;;;;;;;6.50;3.92;;;7.10;99.90;;;;;;5008291;28;20041;-52
2021/11/24 07:16:43;;;;;;;7.53;4.20;;;7.30;99.90;;;;;;5013915;28;20608;-53
2021/11/24 07:19:09;;;;;;;8.45;4.15;;;7.10;99.90;;;;;;5010252;28;20057;-53
2021/11/24 07:21:35;;;;;;;6.63;4.18;;;7.10;99.90;;;;;;5012237;28;20123;-54
2021/11/24 07:24:01;;;;;;;7.35;4.70;;;7.10;99.90;;;;;;5008341;28;20069;-53
2021/11/24 07:26:26;;;;;;;7.03;4.63;;;7.10;99.90;;;;;;5010538;28;20502;-52
2021/11/24 07:28:52;;;;;;;6.88;5.45;;;7.10;99.90;;;;;;5003282;28;20442;-52
2021/11/24 07:31:17;;;;;;;8.30;4.95;;;7.10;99.90;;;;;;5005376;28;20487;-53
2021/11/24 07:33:43;;;;;;;9.85;6.78;;;7.10;99.90;;;;;;5013040;28;20041;-52
2021/11/24 07:36:09;;;;;;;7.50;4.70;;;7.10;99.90;;;;;;5009825;28;20045;-53
2021/11/24 07:38:35;;;;;;;5.95;4.65;;;7.10;99.90;;;;;;4993297;28;20041;-50
2021/11/24 07:41:00;;;;;;;8.25;4.70;;;7.10;99.90;;;;;;5006479;28;20033;-53
2021/11/24 07:43:26;;;;;;;6.35;4.40;;;7.10;99.90;;;;;;5012881;28;20087;-54
2021/11/24 07:45:52;;;;;;;6.93;4.50;;;7.10;99.90;;;;;;5008423;28;20479;-52
2021/11/24 07:48:18;;;;;;;6.63;4.68;;;7.10;99.90;;;;;;5010516;28;20084;-52
2021/11/24 07:50:43;;;;;;;8.93;5.20;;;7.10;99.90;;;;;;5013188;28;20498;-53
2021/11/24 07:53:09;;;;;;;8.65;5.38;;;7.10;99.90;;;;;;5017123;28;20381;-53
2021/11/24 07:55:35;;;;;;;9.00;5.28;;;7.10;99.90;;;;;;5012544;28;20156;-50
2021/11/24 07:58:00;;;;;;;7.95;4.53;;;7.10;99.90;;;;;;5008229;28;20034;-54
2021/11/24 08:00:26;;;;;;;8.15;4.82;;;7.10;99.90;;;;;;5008929;28;20045;-53
2021/11/24 08:02:51;;;;;;;7.78;4.90;;;7.20;99.90;;;;;;5003753;28;20038;-54
2021/11/24 08:05:17;;;;;;;7.38;5.05;;;7.10;99.90;;;;;;5001448;28;20109;-53
2021/11/24 08:07:43;;;;;;;9.32;6.50;;;7.10;99.90;;;;;;5002583;28;20045;-53
2021/11/24 08:10:12;;;;;;;12.13;6.65;;;7.20;99.90;;;;;;5008679;28;20046;-53
2021/11/24 08:12:39;;;;;;;7.97;6.45;;;7.20;99.90;;;;;;4986270;28;20137;-50
2021/11/24 08:15:07;;;;;;;8.82;5.20;;;7.20;99.90;;;;;;5007377;28;20473;-51
2021/11/24 08:17:32;;;;;;;8.25;5.15;;;7.20;99.90;;;;;;5009468;28;20045;-54
2021/11/24 08:19:59;;;;;;;7.47;5.70;;;7.20;99.90;;;;;;5009860;28;20037;-53
2021/11/24 08:22:25;;;;;;;7.78;5.35;;;7.20;99.90;;;;;;5001626;28;20046;-53
2021/11/24 08:24:51;;;;;;;9.27;5.00;;;7.20;99.90;;;;;;5010539;28;20038;-53
2021/11/24 08:27:17;;;;;;;7.32;5.30;;;7.20;99.90;;;;;;5001707;28;20041;-53
2021/11/24 08:29:43;;;;;;;7.85;5.20;;;7.20;99.90;;;;;;5010705;28;20577;-54
2021/11/24 08:32:10;;;;;;;8.48;5.18;;;7.20;99.90;;;;;;5007510;28;20398;-53
2021/11/24 08:34:36;;;;;;;8.77;5.95;;;7.20;99.90;;;;;;5003240;28;20506;-53
2021/11/24 08:37:01;;;;;;;11.45;6.85;;;7.20;99.90;;;;;;5006534;28;20072;-53
2021/11/24 08:39:27;;;;;;;9.85;6.10;;;7.20;99.90;;;;;;5008386;28;20038;-53
2021/11/24 08:41:53;;;;;;;10.02;5.57;;;7.20;99.90;;;;;;5010334;28;20041;-51
2021/11/24 08:44:18;;;;;;;10.38;5.75;;;7.20;99.90;;;;;;5004461;28;20402;-52
2021/11/24 08:46:44;;;;;;;7.85;5.68;;;7.20;99.90;;;;;;5009389;28;20038;-53
2021/11/24 08:49:10;;;;;;;11.30;6.88;;;7.30;99.90;;;;;;5004412;28;20446;-54
2021/11/24 08:51:38;;;;;;;10.20;6.47;;;7.20;99.90;;;;;;5005697;28;20034;-54
2021/11/24 08:54:05;;;;;;;9.00;6.93;;;7.30;99.90;;;;;;5003837;28;20052;-53
2021/11/24 08:56:34;;;;;;;11.30;6.88;;;7.30;99.90;;;;;;5007789;28;20117;-50
2021/11/24 08:59:01;;;;;;;9.43;6.68;;;7.30;99.90;;;;;;5007937;28;20121;-51
2021/11/24 09:01:27;;;;;;;8.75;6.53;;;7.30;99.90;;;;;;5006524;28;20340;-53
2021/11/24 09:03:53;;;;;;;12.13;7.25;;;7.30;99.90;;;;;;5006767;28;20112;-51
2021/11/24 09:06:19;;;;;;;11.50;6.63;;;7.40;99.90;;;;;;5005581;28;20077;-52
2021/11/24 09:08:44;;;;;;;11.27;7.03;;;7.40;99.90;;;;;;5005490;28;20052;-50
2021/11/24 09:11:10;;;;;;;10.73;6.60;;;7.40;99.90;;;;;;5010321;28;20037;-52
2021/11/24 09:13:36;;;;;;;10.13;6.28;;;7.40;99.90;;;;;;5002526;28;20445;-51
2021/11/24 09:16:02;;;;;;;11.88;7.03;;;7.40;99.90;;;;;;5006970;28;20066;-51
2021/11/24 09:18:27;;;;;;;9.70;6.55;;;7.40;99.90;;;;;;5001383;28;20038;-50
2021/11/24 09:20:53;;;;;;;10.45;6.38;;;7.40;99.90;;;;;;5005661;28;20410;-53
2021/11/24 09:27:03;;;;;;;7.07;5.55;;;7.50;99.90;;;;;;5004756;28;20087;-52
2021/11/24 09:29:29;;;;;;;10.07;5.88;;;7.60;99.90;;;;;;5010318;28;20061;-50
2021/11/24 09:31:56;;;;;;;7.93;5.25;;;7.60;99.90;;;;;;5007053;28;20034;-50
2021/11/24 09:34:23;;;;;;;11.48;5.65;;;7.60;99.90;;;;;;5002941;28;20494;-50
2021/11/24 09:36:49;;;;;;;10.18;6.15;;;7.60;99.90;;;;;;5001254;28;20042;-51
2021/11/24 09:39:15;;;;;;;8.38;5.70;;;7.70;99.90;;;;;;5010729;28;20510;-53
2021/11/24 09:41:43;;;;;;;7.28;5.18;;;7.70;99.90;;;;;;5010977;28;20089;-50
2021/11/24 09:44:09;;;;;;;8.27;5.68;;;7.70;99.90;;;;;;5010915;28;20153;-50
2021/11/24 09:46:35;;;;;;;9.93;5.95;;;7.80;99.90;;;;;;5008556;28;20459;-52
2021/11/24 09:49:05;;;;;;;9.07;5.75;;;7.80;99.90;;;;;;4995902;28;20041;-53
2021/11/24 09:51:32;;;;;;;9.75;5.85;;;7.80;99.90;;;;;;5010559;28;20402;-53
2021/11/24 09:54:01;;;;;;;10.38;5.88;;;7.80;99.90;;;;;;5010644;28;20048;-51
2021/11/24 09:56:27;;;;;;;9.13;5.78;;;7.80;99.90;;;;;;5010863;28;20077;-53
2021/11/24 09:58:53;;;;;;;9.52;5.75;;;7.80;99.90;;;;;;5009240;28;20057;-54
2021/11/24 10:01:18;;;;;;;9.10;6.15;;;7.90;99.90;;;;;;5004215;28;20114;-50
2021/11/24 10:03:44;;;;;;;8.25;5.63;;;7.80;99.90;;;;;;5006861;28;20046;-51
2021/11/24 10:06:10;;;;;;;7.63;5.38;;;7.90;99.90;;;;;;5005387;28;20029;-51
2021/11/24 10:08:36;;;;;;;7.50;4.82;;;7.90;99.90;;;;;;5007930;28;20116;-53
2021/11/24 10:11:02;;;;;;;9.43;4.95;;;8.00;99.90;;;;;;5010807;28;20038;-52
2021/11/24 10:13:28;;;;;;;7.50;4.78;;;8.00;99.90;;;;;;5010297;28;20517;-50
2021/11/24 10:15:58;;;;;;;14.48;4.70;;;8.00;99.90;;;;;;5009478;28;20116;-53
2021/11/24 10:18:32;;;;;;;7.55;4.45;;;8.00;99.90;;;;;;5010862;28;20045;-50
2021/11/24 10:21:14;;;;;;;8.40;4.32;;;8.00;99.90;;;;;;4999583;28;20035;-53
2021/11/24 10:23:46;;;;;;;9.25;4.40;;;8.00;99.90;;;;;;5005966;28;20076;-52
2021/11/24 10:26:16;;;;;;;6.50;4.15;;;8.00;99.90;;;;;;5008017;28;20104;-50
2021/11/24 10:28:52;;;;;;;6.65;4.50;;;8.00;99.90;;;;;;5008288;28;20037;-51
2021/11/24 10:31:39;;;;;;;7.50;4.90;;;8.10;99.90;;;;;;5008163;28;20038;-53
2021/11/24 10:34:24;;;;;;;7.13;4.30;;;8.10;99.90;;;;;;5014064;28;20046;-50
2021/11/24 10:37:11;;;;;;;9.60;4.55;;;8.10;99.90;;;;;;5011892;28;20042;-53
2021/11/24 10:39:56;;;;;;;6.38;4.18;;;8.10;99.90;;;;;;5004550;28;20049;-50
2021/11/24 10:42:25;;;;;;;6.13;4.22;;;8.10;99.90;;;;;;5008773;28;20037;-53
2021/11/24 10:44:56;;;;;;;7.38;4.30;;;8.10;99.90;;;;;;5006379;28;20410;-50
2021/11/24 10:47:23;;;;;;;8.60;5.13;;;8.20;99.90;;;;;;5020301;28;20034;-53
2021/11/24 10:49:55;;;;;;;8.18;4.75;;;8.20;99.90;;;;;;5008275;28;20046;-50
2021/11/24 10:52:43;;;;;;;6.88;4.70;;;8.20;99.90;;;;;;5014261;28;20108;-53
2021/11/24 10:55:11;;;;;;;8.18;4.63;;;8.20;99.90;;;;;;5011002;28;20046;-54
2021/11/24 10:57:40;;;;;;;9.00;4.85;;;8.20;99.90;;;;;;5001133;28;20100;-50
2021/11/24 11:00:13;;;;;;;7.25;4.85;;;8.20;99.90;;;;;;5009469;28;20462;-50
2021/11/24 11:02:44;;;;;;;8.48;4.22;;;8.20;99.90;;;;;;5007987;28;20042;-52
2021/11/24 11:05:11;;;;;;;8.95;4.78;;;8.20;99.90;;;;;;5002717;28;20460;-51
2021/11/24 11:08:02;;;;;;;7.95;4.85;;;8.30;99.90;;;;;;5003044;28;20117;-53
2021/11/24 11:10:39;;;;;;;8.43;4.80;;;8.30;99.90;;;;;;4991495;28;20041;-51
2021/11/24 11:13:14;;;;;;;7.10;4.22;;;8.30;99.90;;;;;;5012660;28;20157;-51
2021/11/24 11:15:43;;;;;;;6.95;4.25;;;8.30;99.90;;;;;;5012632;28;20030;-52
2021/11/24 11:18:27;;;;;;;7.78;4.38;;;8.30;99.90;;;;;;5014515;28;20034;-53
2021/11/24 11:21:07;;;;;;;8.07;4.57;;;8.30;99.90;;;;;;5014107;28;20042;-51
2021/11/24 11:23:39;;;;;;;6.20;4.43;;;8.40;99.90;;;;;;5013031;28;20486;-50
2021/11/24 11:26:08;;;;;;;6.80;4.53;;;8.40;99.90;;;;;;5006698;28;20117;-54
2021/11/24 11:28:36;;;;;;;7.10;4.32;;;8.40;99.90;;;;;;5012806;28;20034;-53
2021/11/24 11:31:07;;;;;;;5.68;3.97;;;8.40;99.90;;;;;;5009933;28;20096;-50
2021/11/24 11:33:42;;;;;;;8.18;4.05;;;8.40;99.90;;;;;;5010012;28;20074;-51
2021/11/24 11:36:09;;;;;;;5.35;3.78;;;8.50;99.90;;;;;;5007798;28;20042;-51
2021/11/24 11:38:40;;;;;;;6.03;4.22;;;8.40;99.90;;;;;;5009620;28;20478;-51
2021/11/24 11:41:07;;;;;;;7.30;4.32;;;8.40;99.90;;;;;;5005799;28;20073;-51
2021/11/24 11:43:34;;;;;;;6.47;4.30;;;8.40;99.90;;;;;;5009913;28;20033;-53
2021/11/24 11:46:14;;;;;;;6.82;4.22;;;8.40;99.90;;;;;;5010906;28;20041;-51
2021/11/24 11:48:39;;;;;;;7.68;4.25;;;8.30;99.90;;;;;;5004765;28;20049;-53
2021/11/24 11:51:06;;;;;;;8.40;4.30;;;8.20;99.90;;;;;;5005920;28;20041;-51
2021/11/24 11:53:38;;;;;;;6.65;3.85;;;8.40;99.90;;;;;;5011858;28;20124;-54
2021/11/24 11:56:13;;;;;;;7.95;4.00;;;8.40;99.90;;;;;;5003139;28;20042;-52
2021/11/24 11:58:50;;;;;;;5.55;3.78;;;8.40;99.90;;;;;;4999119;28;20045;-54
2021/11/24 12:01:19;;;;;;;7.15;3.47;;;8.40;99.90;;;;;;5006825;28;20032;-53
2021/11/24 12:03:54;;;;;;;6.97;3.92;;;8.40;99.90;;;;;;5004975;28;20033;-54
2021/11/24 12:06:23;;;;;;;5.82;3.83;;;8.40;99.90;;;;;;5008397;28;20473;-51
2021/11/24 12:09:07;;;;;;;6.82;3.95;;;8.40;99.90;;;;;;5009900;28;20038;-51
2021/11/24 12:12:01;;;;;;;7.75;3.70;;;8.40;99.90;;;;;;5010497;28;20042;-53
2021/11/24 12:14:47;;;;;;;6.18;3.90;;;8.40;99.90;;;;;;5002629;28;20347;-54
2021/11/24 12:17:35;;;;;;;6.28;4.15;;;8.40;99.90;;;;;;5007184;28;20415;-54
2021/11/24 12:20:27;;;;;;;8.60;3.58;;;8.40;99.90;;;;;;4997530;28;20049;-54
2021/11/24 12:22:55;;;;;;;6.55;3.92;;;8.40;99.90;;;;;;5008970;28;20038;-52
2021/11/24 12:25:25;;;;;;;6.82;3.45;;;8.50;99.90;;;;;;5007719;28;20498;-54
2021/11/24 12:27:53;;;;;;;5.45;3.38;;;8.40;99.90;;;;;;5000864;28;20117;-53
2021/11/24 12:30:35;;;;;;;4.85;3.15;;;8.50;99.90;;;;;;5004596;28;20092;-53
2021/11/24 12:33:04;;;;;;;7.45;3.42;;;8.50;99.90;;;;;;5005847;28;20046;-54
2021/11/24 12:35:30;;;;;;;4.75;3.05;;;8.50;99.90;;;;;;5005006;28;20037;-54
2021/11/24 12:37:59;;;;;;;5.18;3.28;;;8.50;99.90;;;;;;5004074;28;20551;-53
2021/11/24 12:40:40;;;;;;;12.57;3.28;;;8.50;99.90;;;;;;5007529;28;20451;-54
2021/11/24 12:43:15;;;;;;;4.47;2.75;;;8.50;99.90;;;;;;5009010;28;20449;-54
2021/11/24 12:45:53;;;;;;;4.13;2.60;;;8.50;99.90;;;;;;5009816;28;20036;-50
2021/11/24 12:48:30;;;;;;;4.65;2.40;;;8.60;99.90;;;;;;4999426;28;20048;-51
2021/11/24 12:50:56;;;;;;;3.35;2.08;;;8.50;99.90;;;;;;5006535;28;20041;-53
2021/11/24 12:53:21;;;;;;;6.97;2.42;;;8.50;99.90;;;;;;5002706;28;20490;-51
2021/11/24 12:55:47;;;;;;;3.15;2.08;;;8.50;99.90;;;;;;5010495;28;20038;-54
2021/11/24 12:58:26;;;;;;;4.43;1.90;;;8.50;99.90;;;;;;5002097;28;20044;-54
2021/11/24 13:00:52;;;;;;;4.95;2.30;;;8.50;99.90;;;;;;5021134;28;20153;-54